createdAt,value
2019-02-07T00:00:01.916Z,34.50
2019-02-07T00:01:27.221Z,34.75
2019-02-07T00:02:37.222Z,37.00
2019-02-07T00:03:40.111Z,37.00
2019-02-07T00:04:42.977Z,32.00
2019-02-07T00:05:46.444Z,35.00
2019-02-07T00:06:49.602Z,37.00
2019-02-07T00:07:53.540Z,38.25
2019-02-07T00:08:56.518Z,37.75
2019-02-07T00:09:59.440Z,40.25
2019-02-07T00:11:02.475Z,34.25
2019-02-07T00:12:05.313Z,32.75
2019-02-07T00:13:08.442Z,33.75
2019-02-07T00:14:11.298Z,38.75
2019-02-07T00:15:16.706Z,38.25
2019-02-07T00:16:19.581Z,35.25
2019-02-07T00:17:22.413Z,34.50
2019-02-07T00:18:25.554Z,36.25
2019-02-07T00:19:32.326Z,32.25
2019-02-07T00:20:35.247Z,36.00
2019-02-07T00:21:38.154Z,33.00
2019-02-07T00:22:40.993Z,30.25
2019-02-07T00:23:46.272Z,34.75
2019-02-07T00:24:49.096Z,30.25
2019-02-07T00:25:56.786Z,34.00
2019-02-07T00:27:00.074Z,30.50
2019-02-07T00:28:05.872Z,37.75
2019-02-07T00:29:08.704Z,37.50
2019-02-07T00:30:11.582Z,28.50
2019-02-07T00:31:14.521Z,31.25
2019-02-07T00:32:17.640Z,33.25
2019-02-07T00:33:20.763Z,36.25
2019-02-07T00:34:23.634Z,34.75
2019-02-07T00:35:26.503Z,35.25
2019-02-07T00:36:29.711Z,30.75
2019-02-07T00:37:35.876Z,31.50
2019-02-07T00:38:41.918Z,36.25
2019-02-07T00:39:44.804Z,33.00
2019-02-07T00:40:47.673Z,39.75
2019-02-07T00:41:52.570Z,33.75
2019-02-07T00:42:55.581Z,32.50
2019-02-07T00:44:00.408Z,34.25
2019-02-07T00:45:03.237Z,38.00
2019-02-07T00:46:06.072Z,42.75
2019-02-07T00:47:08.983Z,32.75
2019-02-07T00:48:12.311Z,35.00
2019-02-07T00:49:15.156Z,33.25
2019-02-07T00:50:18.310Z,37.00
2019-02-07T00:51:21.146Z,33.00
2019-02-07T00:52:24.425Z,38.25
2019-02-07T00:53:27.383Z,33.00
2019-02-07T00:54:30.181Z,37.50
2019-02-07T00:55:33.008Z,38.50
2019-02-07T00:56:36.187Z,37.75
2019-02-07T00:57:38.993Z,32.25
2019-02-07T00:58:41.897Z,34.25
2019-02-07T00:59:44.720Z,36.50
2019-02-07T01:00:47.764Z,42.50
2019-02-07T01:01:51.686Z,31.00
2019-02-07T01:02:54.835Z,34.50
2019-02-07T01:03:57.792Z,35.00
2019-02-07T01:05:01.141Z,34.00
2019-02-07T01:06:03.962Z,40.00
2019-02-07T01:07:08.811Z,42.00
2019-02-07T01:08:11.413Z,40.50
2019-02-07T01:09:14.798Z,41.50
2019-02-07T01:10:17.652Z,36.50
2019-02-07T01:11:20.481Z,40.50
2019-02-07T01:12:23.769Z,36.00
2019-02-07T01:13:26.903Z,38.00
2019-02-07T01:14:29.822Z,37.00
2019-02-07T01:15:33.440Z,49.00
2019-02-07T01:16:36.291Z,41.50
2019-02-07T01:17:39.146Z,37.00
2019-02-07T01:18:42.211Z,39.50
2019-02-07T01:19:45.019Z,39.50
2019-02-07T01:20:47.922Z,42.00
2019-02-07T01:21:51.062Z,41.00
2019-02-07T01:22:56.713Z,40.50
2019-02-07T01:23:59.657Z,37.50
2019-02-07T01:25:02.527Z,45.00
2019-02-07T01:26:05.833Z,37.50
2019-02-07T01:27:08.738Z,37.00
2019-02-07T01:28:14.559Z,46.50
2019-02-07T01:29:17.471Z,39.50
2019-02-07T01:30:20.346Z,40.00
2019-02-07T01:31:23.186Z,39.00
2019-02-07T01:32:25.994Z,42.50
2019-02-07T01:33:28.823Z,39.00
2019-02-07T01:34:33.259Z,41.00
2019-02-07T01:35:36.126Z,39.50
2019-02-07T01:36:38.990Z,42.00
2019-02-07T01:37:41.857Z,36.00
2019-02-07T01:38:45.083Z,44.00
2019-02-07T01:39:47.953Z,38.00
2019-02-07T01:40:51.199Z,39.50
2019-02-07T01:41:54.055Z,40.50
2019-02-07T01:42:56.904Z,43.50
2019-02-07T01:43:59.768Z,42.00
2019-02-07T01:45:12.564Z,40.00
2019-02-07T01:46:07.214Z,39.50
2019-02-07T01:47:10.452Z,38.00
2019-02-07T01:48:13.304Z,40.50
2019-02-07T01:49:18.378Z,42.50
2019-02-07T01:50:21.827Z,39.50
2019-02-07T01:51:24.938Z,40.50
2019-02-07T01:52:27.771Z,40.50
2019-02-07T01:53:31.237Z,43.00
2019-02-07T01:54:34.071Z,45.50
2019-02-07T01:55:37.035Z,41.50
2019-02-07T01:56:39.860Z,37.00
2019-02-07T01:57:42.777Z,39.50
2019-02-07T01:58:45.696Z,38.00
2019-02-07T01:59:48.820Z,42.00
2019-02-07T02:00:51.635Z,42.50
2019-02-07T02:01:54.582Z,43.00
2019-02-07T02:02:57.601Z,38.00
2019-02-07T02:04:00.870Z,43.50
2019-02-07T02:05:03.686Z,47.50
2019-02-07T02:06:06.963Z,39.50
2019-02-07T02:07:09.836Z,39.00
2019-02-07T02:08:12.666Z,43.00
2019-02-07T02:09:15.507Z,39.00
2019-02-07T02:10:18.394Z,40.00
2019-02-07T02:11:21.290Z,46.50
2019-02-07T02:12:26.189Z,44.00
2019-02-07T02:13:29.078Z,39.50
2019-02-07T02:14:31.899Z,36.00
2019-02-07T02:15:36.631Z,44.00
2019-02-07T02:16:39.789Z,47.00
2019-02-07T02:17:42.616Z,42.00
2019-02-07T02:18:45.754Z,44.00
2019-02-07T02:19:49.110Z,43.00
2019-02-07T02:20:55.415Z,43.00
2019-02-07T02:21:58.276Z,42.50
2019-02-07T02:23:01.189Z,38.00
2019-02-07T02:24:04.019Z,49.00
2019-02-07T02:25:07.156Z,41.00
2019-02-07T02:26:10.010Z,42.00
2019-02-07T02:27:12.857Z,41.50
2019-02-07T02:28:15.746Z,41.50
2019-02-07T02:29:18.987Z,47.00
2019-02-07T02:30:21.845Z,41.00
2019-02-07T02:31:25.069Z,42.00
2019-02-07T02:32:27.946Z,46.00
2019-02-07T02:33:30.825Z,35.00
2019-02-07T02:34:33.675Z,37.00
2019-02-07T02:35:36.514Z,43.50
2019-02-07T02:36:39.367Z,46.50
2019-02-07T02:37:42.526Z,45.00
2019-02-07T02:38:45.416Z,40.50
2019-02-07T02:39:48.667Z,46.00
2019-02-07T02:40:51.808Z,50.50
2019-02-07T02:41:54.632Z,40.50
2019-02-07T02:42:57.449Z,42.50
2019-02-07T02:44:00.824Z,39.00
2019-02-07T02:45:03.659Z,47.00
2019-02-07T02:46:06.485Z,46.00
2019-02-07T02:47:09.311Z,37.00
2019-02-07T02:48:12.237Z,38.00
2019-02-07T02:49:15.188Z,38.00
2019-02-07T02:50:18.695Z,39.50
2019-02-07T02:51:21.502Z,41.00
2019-02-07T02:52:24.352Z,38.00
2019-02-07T02:53:27.527Z,42.00
2019-02-07T02:54:42.664Z,46.00
2019-02-07T02:55:46.367Z,37.00
2019-02-07T02:56:49.591Z,42.00
2019-02-07T02:57:53.713Z,40.00
2019-02-07T02:58:56.538Z,46.50
2019-02-07T03:00:02.546Z,39.50
2019-02-07T03:01:27.165Z,45.50
2019-02-07T03:02:41.712Z,41.50
2019-02-07T03:04:15.704Z,38.00
2019-02-07T03:05:43.378Z,39.00
2019-02-07T03:07:03.575Z,43.00
2019-02-07T03:08:25.558Z,41.50
2019-02-07T03:09:40.980Z,42.00
2019-02-07T03:10:53.313Z,44.00
2019-02-07T03:12:12.376Z,37.00
2019-02-07T03:13:36.917Z,45.50
2019-02-07T03:14:57.552Z,39.50
2019-02-07T03:16:19.599Z,33.00
2019-02-07T03:17:56.363Z,38.00
2019-02-07T03:19:12.748Z,45.50
2019-02-07T03:20:33.171Z,36.00
2019-02-07T03:21:47.940Z,38.00
2019-02-07T03:23:08.393Z,38.00
2019-02-07T03:24:28.304Z,37.50
2019-02-07T03:26:11.604Z,42.50
2019-02-07T03:27:33.403Z,30.00
2019-02-07T03:29:00.538Z,39.50
2019-02-07T03:30:20.530Z,36.50
2019-02-07T03:31:40.983Z,36.50
2019-02-07T03:33:01.043Z,38.00
2019-02-07T03:34:25.120Z,42.00
2019-02-07T03:35:46.657Z,34.00
2019-02-07T03:37:14.247Z,34.00
2019-02-07T03:38:30.860Z,36.50
2019-02-07T03:40:01.397Z,46.50
2019-02-07T03:41:21.664Z,39.00
2019-02-07T03:43:01.555Z,35.00
2019-02-07T03:44:14.487Z,39.50
2019-02-07T03:45:38.827Z,37.50
2019-02-07T03:46:55.275Z,37.00
2019-02-07T03:48:17.219Z,36.50
2019-02-07T03:49:50.663Z,34.50
2019-02-07T03:51:15.200Z,35.00
2019-02-07T03:52:35.204Z,37.50
2019-02-07T03:53:57.275Z,40.00
2019-02-07T03:55:24.135Z,34.00
2019-02-07T03:56:44.146Z,37.00
2019-02-07T03:58:12.223Z,37.50
2019-02-07T03:59:34.145Z,38.00
2019-02-07T04:00:59.075Z,41.00
2019-02-07T04:02:26.405Z,39.00
2019-02-07T04:03:36.896Z,39.00
2019-02-07T04:04:54.270Z,44.00
2019-02-07T04:06:24.997Z,35.00
2019-02-07T04:07:56.501Z,35.00
2019-02-07T04:09:16.526Z,39.00
2019-02-07T04:10:30.427Z,40.50
2019-02-07T04:11:50.643Z,42.00
2019-02-07T04:13:27.578Z,36.00
2019-02-07T04:14:57.989Z,38.50
2019-02-07T04:16:18.199Z,36.00
2019-02-07T04:17:31.606Z,36.00
2019-02-07T04:19:02.334Z,40.50
2019-02-07T04:20:26.785Z,33.00
2019-02-07T04:21:47.192Z,41.50
2019-02-07T04:23:04.962Z,36.50
2019-02-07T04:24:32.712Z,40.50
2019-02-07T04:25:49.385Z,41.00
2019-02-07T04:27:09.780Z,36.50
2019-02-07T04:28:43.607Z,34.50
2019-02-07T04:29:54.085Z,35.50
2019-02-07T04:31:20.857Z,45.50
2019-02-07T04:32:41.304Z,39.00
2019-02-07T04:34:02.859Z,36.00
2019-02-07T04:35:33.371Z,37.50
2019-02-07T04:36:45.616Z,32.50
2019-02-07T04:38:06.739Z,43.50
2019-02-07T04:39:28.310Z,36.00
2019-02-07T04:40:40.650Z,35.50
2019-02-07T04:42:08.169Z,33.50
2019-02-07T04:43:44.433Z,30.50
2019-02-07T04:45:18.938Z,35.00
2019-02-07T04:46:40.491Z,33.50
2019-02-07T04:48:05.194Z,39.00
2019-02-07T04:49:30.294Z,38.50
2019-02-07T04:50:52.681Z,42.00
2019-02-07T04:52:26.129Z,34.00
2019-02-07T04:53:46.630Z,36.00
2019-02-07T04:55:08.188Z,40.50
2019-02-07T04:56:28.767Z,32.50
2019-02-07T04:57:41.382Z,34.50
2019-02-07T04:59:11.752Z,38.50
2019-02-07T05:00:31.754Z,40.50
2019-02-07T05:01:56.366Z,31.00
2019-02-07T05:03:20.458Z,39.00
2019-02-07T05:04:45.125Z,38.00
2019-02-07T05:06:09.724Z,34.00
2019-02-07T05:07:30.055Z,35.50
2019-02-07T05:08:38.746Z,34.00
2019-02-07T05:10:00.488Z,37.00
2019-02-07T05:11:22.061Z,33.00
2019-02-07T05:12:46.415Z,38.50
2019-02-07T05:14:14.411Z,38.00
2019-02-07T05:15:45.114Z,30.00
2019-02-07T05:17:18.865Z,34.50
2019-02-07T05:18:32.444Z,38.00
2019-02-07T05:19:57.414Z,48.50
2019-02-07T05:21:17.612Z,39.50
2019-02-07T05:22:42.176Z,36.00
2019-02-07T05:23:58.821Z,38.00
2019-02-07T05:25:23.963Z,39.00
2019-02-07T05:26:38.947Z,33.50
2019-02-07T05:28:00.542Z,39.50
2019-02-07T05:29:37.299Z,45.50
2019-02-07T05:30:58.998Z,39.50
2019-02-07T05:32:27.081Z,34.50
2019-02-07T05:34:00.714Z,32.50
2019-02-07T05:35:33.800Z,36.50
2019-02-07T05:36:55.677Z,31.00
2019-02-07T05:38:17.304Z,36.00
2019-02-07T05:39:44.732Z,32.50
2019-02-07T05:41:12.376Z,30.50
2019-02-07T05:42:34.660Z,33.00
2019-02-07T05:44:08.198Z,32.00
2019-02-07T05:45:28.919Z,35.00
2019-02-07T05:47:08.698Z,32.00
2019-02-07T05:48:31.810Z,26.50
2019-02-07T05:50:05.161Z,33.50
2019-02-07T05:51:32.503Z,34.50
2019-02-07T05:52:52.789Z,32.50
2019-02-07T05:54:18.571Z,34.00
2019-02-07T05:55:34.616Z,36.50
2019-02-07T05:57:01.948Z,30.50
2019-02-07T05:58:28.353Z,36.50
2019-02-07T05:59:49.031Z,32.00
2019-02-07T06:01:02.427Z,32.50
2019-02-07T06:02:33.273Z,36.50
2019-02-07T06:03:49.278Z,32.00
2019-02-07T06:05:04.730Z,32.50
2019-02-07T06:06:21.635Z,34.50
2019-02-07T06:07:51.145Z,32.00
2019-02-07T06:09:21.783Z,38.00
2019-02-07T06:10:52.456Z,33.00
2019-02-07T06:12:19.064Z,29.50
2019-02-07T06:13:52.655Z,31.50
2019-02-07T06:15:13.054Z,31.50
2019-02-07T06:16:33.247Z,40.00
2019-02-07T06:17:58.214Z,32.00
2019-02-07T06:19:25.932Z,33.00
2019-02-07T06:20:59.254Z,30.50
2019-02-07T06:22:21.250Z,33.50
2019-02-07T06:23:41.585Z,35.00
2019-02-07T06:25:12.686Z,34.50
2019-02-07T06:26:39.995Z,34.00
2019-02-07T06:28:13.498Z,31.50
2019-02-07T06:29:36.784Z,28.00
2019-02-07T06:44:33.378Z,44.50
2019-02-07T06:45:46.208Z,33.25
2019-02-07T06:47:16.566Z,37.00
2019-02-07T06:48:43.983Z,33.50
2019-02-07T06:50:01.151Z,29.50
2019-02-07T06:51:26.252Z,34.50
2019-02-07T06:52:46.230Z,31.50
2019-02-07T06:54:23.414Z,36.50
2019-02-07T06:55:45.004Z,36.00
2019-02-07T06:57:22.056Z,36.00
2019-02-07T06:58:55.075Z,38.00
2019-02-07T07:00:18.539Z,30.50
2019-02-07T07:01:38.267Z,35.00
2019-02-07T07:03:02.627Z,31.50
2019-02-07T07:04:24.202Z,32.00
2019-02-07T07:05:47.170Z,30.50
2019-02-07T07:07:08.809Z,37.50
2019-02-07T07:08:28.778Z,36.00
2019-02-07T07:09:56.120Z,28.00
2019-02-07T07:11:24.128Z,34.50
2019-02-07T07:12:48.984Z,34.00
2019-02-07T07:14:13.485Z,33.50
2019-02-07T07:15:28.967Z,27.50
2019-02-07T07:16:49.360Z,37.00
2019-02-07T07:18:09.347Z,33.00
2019-02-07T07:19:36.798Z,35.50
2019-02-07T07:20:59.556Z,36.00
2019-02-07T07:22:20.165Z,30.00
2019-02-07T07:23:40.499Z,35.50
2019-02-07T07:25:14.398Z,35.00
2019-02-07T07:26:42.638Z,29.50
2019-02-07T07:28:20.102Z,33.00
2019-02-07T07:29:48.191Z,33.00
2019-02-07T07:31:08.624Z,31.00
2019-02-07T07:32:42.073Z,42.00
2019-02-07T07:33:58.115Z,40.50
2019-02-07T07:35:18.115Z,39.50
2019-02-07T07:36:47.820Z,37.50
2019-02-07T07:38:21.311Z,33.50
2019-02-07T07:39:41.940Z,38.50
2019-02-07T07:40:55.390Z,37.50
2019-02-07T07:42:26.043Z,32.00
2019-02-07T07:43:41.608Z,35.50
2019-02-07T07:45:09.417Z,37.00
2019-02-07T07:46:29.417Z,32.00
2019-02-07T07:47:56.900Z,38.00
2019-02-07T07:49:17.025Z,42.50
2019-02-07T07:50:45.047Z,37.50
2019-02-07T07:52:25.220Z,36.00
2019-02-07T07:53:58.940Z,34.00
2019-02-07T07:55:22.595Z,34.00
2019-02-07T07:56:53.641Z,46.00
2019-02-07T07:58:21.258Z,37.50
2019-02-07T07:59:55.724Z,37.50
2019-02-07T08:01:17.428Z,33.50
2019-02-07T08:02:57.495Z,47.00
2019-02-07T08:04:12.537Z,38.00
2019-02-07T08:05:26.188Z,42.50
2019-02-07T08:07:05.536Z,44.50
2019-02-07T08:08:32.206Z,44.50
2019-02-07T08:09:49.547Z,41.00
2019-02-07T08:11:20.035Z,38.00
2019-02-07T08:12:40.195Z,38.00
2019-02-07T08:14:00.311Z,39.50
2019-02-07T08:15:20.812Z,41.50
2019-02-07T08:16:42.428Z,44.00
2019-02-07T08:18:19.575Z,40.00
2019-02-07T08:19:41.623Z,44.00
2019-02-07T08:21:18.110Z,46.50
2019-02-07T08:22:38.338Z,34.00
2019-02-07T08:23:56.251Z,47.50
2019-02-07T08:25:16.629Z,41.50
2019-02-07T08:26:41.091Z,42.00
2019-02-07T08:28:00.851Z,37.00
2019-02-07T08:29:31.618Z,44.50
2019-02-07T08:30:51.562Z,43.00
2019-02-07T08:32:24.752Z,39.00
2019-02-07T08:33:47.235Z,43.50
2019-02-07T08:35:17.845Z,39.50
2019-02-07T08:36:37.749Z,39.00
2019-02-07T08:38:01.389Z,46.00
2019-02-07T08:39:21.772Z,42.00
2019-02-07T08:40:52.594Z,40.00
2019-02-07T08:42:32.178Z,51.50
2019-02-07T08:44:14.281Z,42.50
2019-02-07T08:45:38.195Z,34.00
2019-02-07T08:46:59.769Z,48.50
2019-02-07T08:48:30.620Z,43.00
2019-02-07T08:49:58.120Z,37.00
2019-02-07T08:51:12.928Z,45.50
2019-02-07T08:52:52.427Z,46.00
2019-02-07T08:54:16.744Z,38.50
2019-02-07T08:55:39.200Z,37.50
2019-02-07T08:57:05.700Z,44.50
2019-02-07T08:58:25.903Z,44.50
2019-02-07T08:59:59.681Z,45.50
2019-02-07T09:01:32.952Z,45.50
2019-02-07T09:02:53.360Z,42.50
2019-02-07T09:04:19.388Z,46.50
2019-02-07T09:05:46.724Z,37.50
2019-02-07T09:07:17.759Z,46.50
2019-02-07T09:08:44.951Z,44.00
2019-02-07T09:10:02.407Z,45.50
2019-02-07T09:11:29.792Z,39.50
2019-02-07T09:13:06.701Z,40.50
2019-02-07T09:14:31.746Z,39.50
2019-02-07T09:15:55.775Z,46.00
2019-02-07T09:17:37.561Z,39.50
2019-02-07T09:19:11.711Z,42.00
2019-02-07T09:20:36.246Z,38.00
2019-02-07T09:22:06.766Z,45.00
2019-02-07T09:23:37.197Z,38.50
2019-02-07T09:25:10.959Z,37.50
2019-02-07T09:26:35.221Z,40.00
2019-02-07T09:27:56.064Z,43.00
2019-02-07T09:29:15.997Z,49.50
2019-02-07T09:30:36.346Z,38.00
2019-02-07T09:32:03.943Z,37.00
2019-02-07T09:33:22.090Z,42.00
2019-02-07T09:34:43.647Z,39.50
2019-02-07T09:36:05.781Z,44.00
2019-02-07T09:37:30.388Z,48.00
2019-02-07T09:38:55.215Z,45.50
2019-02-07T09:40:16.094Z,39.50
2019-02-07T09:41:30.778Z,43.00
2019-02-07T09:42:55.251Z,46.50
2019-02-07T09:44:15.256Z,47.00
2019-02-07T09:45:35.825Z,45.00
2019-02-07T09:47:03.900Z,46.00
2019-02-07T09:48:30.041Z,42.00
2019-02-07T09:50:00.470Z,38.50
2019-02-07T09:51:37.396Z,37.50
2019-02-07T09:52:58.165Z,40.00
2019-02-07T09:54:18.446Z,37.50
2019-02-07T09:55:49.329Z,40.50
2019-02-07T09:57:17.431Z,41.00
2019-02-07T09:58:42.200Z,41.50
2019-02-07T10:00:06.845Z,44.00
2019-02-07T10:01:26.851Z,42.00
2019-02-07T10:02:41.792Z,46.50
2019-02-07T10:04:01.828Z,42.00
2019-02-07T10:05:25.022Z,42.00
2019-02-07T10:06:46.642Z,46.00
2019-02-07T10:08:11.324Z,39.50
2019-02-07T10:09:37.226Z,48.50
2019-02-07T10:10:57.761Z,38.00
2019-02-07T10:12:18.037Z,41.00
2019-02-07T10:13:37.990Z,38.00
2019-02-07T10:14:59.918Z,37.50
2019-02-07T10:16:27.668Z,44.00
2019-02-07T10:17:48.801Z,38.00
2019-02-07T10:19:19.215Z,50.50
2019-02-07T10:20:40.663Z,41.00
2019-02-07T10:22:09.929Z,37.00
2019-02-07T10:23:21.168Z,33.00
2019-02-07T10:24:41.374Z,40.00
2019-02-07T10:26:01.801Z,34.50
2019-02-07T10:27:22.042Z,35.50
2019-02-07T10:28:42.196Z,34.00
2019-02-07T10:29:57.184Z,36.00
2019-02-07T10:31:37.149Z,36.00
2019-02-07T10:32:57.086Z,34.50
2019-02-07T10:34:27.858Z,34.00
2019-02-07T10:35:58.289Z,31.50
2019-02-07T10:37:19.943Z,34.50
2019-02-07T10:38:47.304Z,38.00
2019-02-07T10:40:01.785Z,34.00
2019-02-07T10:41:14.909Z,32.00
2019-02-07T10:42:38.493Z,29.50
2019-02-07T10:44:12.179Z,33.50
2019-02-07T10:45:32.152Z,31.00
2019-02-07T10:46:53.804Z,31.50
2019-02-07T10:48:18.058Z,31.00
2019-02-07T10:49:39.637Z,31.50
2019-02-07T10:50:54.777Z,30.00
2019-02-07T10:52:26.574Z,32.00
2019-02-07T10:53:50.758Z,30.00
2019-02-07T10:55:18.394Z,28.00
2019-02-07T10:56:38.671Z,36.00
2019-02-07T10:58:01.349Z,30.00
2019-02-07T10:59:25.081Z,35.00
2019-02-07T11:00:52.416Z,27.00
2019-02-07T11:02:13.450Z,27.50
2019-02-07T11:03:35.743Z,28.50
2019-02-07T11:04:57.708Z,26.00
2019-02-07T11:06:22.388Z,34.00
2019-02-07T11:07:57.843Z,28.50
2019-02-07T11:09:33.525Z,28.00
2019-02-07T11:10:44.985Z,24.00
2019-02-07T11:12:19.317Z,29.00
2019-02-07T11:13:50.997Z,33.50
2019-02-07T11:15:11.109Z,27.00
2019-02-07T11:16:40.640Z,25.50
2019-02-07T11:18:01.112Z,27.50
2019-02-07T11:19:24.452Z,30.00
2019-02-07T11:20:44.048Z,30.00
2019-02-07T11:21:57.836Z,27.50
2019-02-07T11:23:23.094Z,22.00
2019-02-07T11:24:51.704Z,26.00
2019-02-07T11:26:25.147Z,30.00
2019-02-07T11:27:45.693Z,23.00
2019-02-07T11:29:05.758Z,29.00
2019-02-07T11:43:37.771Z,26.75
2019-02-07T11:45:02.674Z,24.25
2019-02-07T11:46:15.619Z,26.00
2019-02-07T11:47:43.592Z,25.50
2019-02-07T11:49:07.150Z,24.50
2019-02-07T11:50:28.903Z,27.75
2019-02-07T11:51:44.413Z,21.00
2019-02-07T11:53:05.368Z,27.00
2019-02-07T11:54:34.174Z,25.00
2019-02-07T11:55:55.710Z,24.00
2019-02-07T11:57:19.284Z,25.00
2019-02-07T11:58:53.850Z,26.25
2019-02-07T12:00:09.984Z,22.50
2019-02-07T12:01:31.590Z,19.75
2019-02-07T12:02:51.846Z,22.50
2019-02-07T12:04:02.249Z,22.50
2019-02-07T12:05:35.633Z,27.00
2019-02-07T12:06:58.949Z,19.25
2019-02-07T12:08:20.566Z,23.75
2019-02-07T12:09:41.838Z,25.25
2019-02-07T12:10:59.556Z,20.00
2019-02-07T12:12:19.567Z,27.75
2019-02-07T12:13:40.183Z,23.25
2019-02-07T12:15:07.254Z,20.75
2019-02-07T12:16:31.642Z,19.75
2019-02-07T12:17:50.030Z,21.25
2019-02-07T12:19:01.550Z,20.75
2019-02-07T12:20:24.669Z,17.75
2019-02-07T12:21:43.743Z,17.75
2019-02-07T12:23:15.579Z,21.75
2019-02-07T12:24:41.991Z,21.25
2019-02-07T12:26:10.225Z,19.25
2019-02-07T12:27:49.937Z,24.00
2019-02-07T12:29:12.262Z,23.50
2019-02-07T12:30:32.730Z,20.50
2019-02-07T12:32:06.881Z,23.50
2019-02-07T12:33:31.667Z,23.00
2019-02-07T12:34:59.311Z,21.75
2019-02-07T12:36:22.950Z,17.75
2019-02-07T12:37:27.927Z,21.25
2019-02-07T12:38:58.518Z,21.00
2019-02-07T12:40:18.657Z,19.75
2019-02-07T12:41:58.203Z,18.75
2019-02-07T12:43:23.049Z,21.75
2019-02-07T12:44:51.131Z,22.25
2019-02-07T12:46:33.655Z,21.25
2019-02-07T12:48:01.240Z,13.75
2019-02-07T12:49:29.617Z,20.00
2019-02-07T12:50:51.266Z,18.00
2019-02-07T12:52:15.773Z,20.00
2019-02-07T12:53:29.302Z,20.25
2019-02-07T12:54:53.823Z,20.75
2019-02-07T12:56:14.617Z,22.75
2019-02-07T12:57:29.160Z,17.00
2019-02-07T12:58:49.202Z,17.00
2019-02-07T13:00:13.689Z,18.25
2019-02-07T13:01:38.244Z,21.00
2019-02-07T13:03:10.121Z,17.75
2019-02-07T13:04:33.146Z,19.00
2019-02-07T13:06:06.387Z,17.00
2019-02-07T13:07:42.386Z,20.00
2019-02-07T13:09:02.495Z,21.25
2019-02-07T13:10:24.787Z,17.00
2019-02-07T13:11:48.027Z,19.00
2019-02-07T13:12:59.714Z,18.00
2019-02-07T13:14:29.522Z,19.25
2019-02-07T13:15:55.023Z,16.50
2019-02-07T13:17:31.744Z,17.00
2019-02-07T13:19:05.255Z,15.50
2019-02-07T13:20:38.604Z,16.25
2019-02-07T13:22:06.229Z,20.25
2019-02-07T13:23:40.529Z,16.00
2019-02-07T13:25:11.197Z,15.00
2019-02-07T13:26:31.331Z,16.75
2019-02-07T13:27:44.703Z,18.50
2019-02-07T13:29:06.754Z,16.00
2019-02-07T13:30:28.894Z,17.00
2019-02-07T13:31:52.214Z,17.00
2019-02-07T13:33:32.205Z,13.00
2019-02-07T13:35:01.315Z,17.50
2019-02-07T13:36:21.270Z,15.00
2019-02-07T13:37:54.059Z,14.00
2019-02-07T13:39:14.750Z,12.00
2019-02-07T13:40:36.347Z,12.50
2019-02-07T13:41:58.786Z,17.25
2019-02-07T13:43:20.373Z,9.00
2019-02-07T13:44:51.108Z,13.50
2019-02-07T13:46:06.402Z,15.25
2019-02-07T13:47:37.544Z,9.00
2019-02-07T13:49:12.769Z,14.25
2019-02-07T13:50:25.812Z,11.00
2019-02-07T13:51:38.473Z,11.00
2019-02-07T13:53:00.601Z,12.75
2019-02-07T13:54:22.162Z,11.00
2019-02-07T13:55:43.358Z,13.50
2019-02-07T13:57:14.066Z,13.50
2019-02-07T13:58:38.974Z,13.00
2019-02-07T14:00:00.511Z,11.00
2019-02-07T14:01:20.637Z,12.75
2019-02-07T14:02:58.765Z,11.00
2019-02-07T14:04:19.258Z,13.00
2019-02-07T14:05:38.671Z,13.50
2019-02-07T14:07:00.387Z,14.75
2019-02-07T14:08:38.135Z,14.00
2019-02-07T14:10:02.544Z,10.50
2019-02-07T14:11:24.167Z,11.00
2019-02-07T14:12:45.732Z,11.00
2019-02-07T14:14:06.300Z,13.00
2019-02-07T14:15:27.597Z,13.00
2019-02-07T14:16:47.845Z,11.00
2019-02-07T14:18:07.998Z,13.00
2019-02-07T14:19:27.989Z,13.00
2019-02-07T14:20:54.606Z,14.00
2019-02-07T14:22:19.456Z,12.00
2019-02-07T14:23:41.113Z,13.00
2019-02-07T14:25:01.260Z,11.50
2019-02-07T14:26:23.334Z,14.75
2019-02-07T14:27:47.452Z,11.25
2019-02-07T14:29:15.255Z,9.50
2019-02-07T14:30:45.809Z,11.00
2019-02-07T14:32:11.862Z,9.00
2019-02-07T14:33:39.367Z,13.00
2019-02-07T14:35:13.085Z,8.50
2019-02-07T14:36:52.888Z,11.00
2019-02-07T14:38:13.231Z,13.00
2019-02-07T14:39:34.783Z,11.00
2019-02-07T14:40:54.798Z,13.00
2019-02-07T14:42:19.394Z,9.00
2019-02-07T14:43:41.286Z,9.00
2019-02-07T14:45:08.496Z,10.50
2019-02-07T14:46:30.479Z,8.50
2019-02-07T14:47:33.383Z,10.00
2019-02-07T14:48:36.202Z,8.50
2019-02-07T14:49:43.878Z,9.00
2019-02-07T14:50:46.706Z,10.00
2019-02-07T14:51:49.573Z,11.75
2019-02-07T14:52:55.431Z,9.25
2019-02-07T14:54:00.657Z,10.00
2019-02-07T14:55:08.175Z,10.00
2019-02-07T14:56:11.647Z,9.00
2019-02-07T14:57:14.713Z,9.25
2019-02-07T14:58:24.716Z,9.25
2019-02-07T14:59:35.477Z,8.00
2019-02-07T15:00:37.316Z,7.00
2019-02-07T15:01:42.230Z,10.75
2019-02-07T15:02:48.045Z,12.00
2019-02-07T15:03:55.691Z,10.00
2019-02-07T15:05:04.387Z,9.00
2019-02-07T15:06:07.682Z,10.75
2019-02-07T15:07:13.270Z,9.00
2019-02-07T15:08:16.138Z,7.50
2019-02-07T15:09:33.020Z,9.25
2019-02-07T15:10:33.456Z,10.75
2019-02-07T15:11:40.194Z,10.75
2019-02-07T15:12:47.244Z,9.25
2019-02-07T15:13:48.529Z,7.50
2019-02-07T15:15:13.658Z,9.00
2019-02-07T15:16:16.480Z,7.00
2019-02-07T15:17:19.410Z,10.50
2019-02-07T15:18:22.173Z,7.00
2019-02-07T15:19:25.357Z,7.00
2019-02-07T15:20:29.300Z,9.00
2019-02-07T15:21:32.823Z,8.00
2019-02-07T15:22:35.756Z,7.00
2019-02-07T15:23:38.535Z,8.00
2019-02-07T15:24:41.417Z,7.00
2019-02-07T15:25:44.220Z,8.00
2019-02-07T15:26:50.762Z,7.50
2019-02-07T15:27:57.067Z,7.50
2019-02-07T15:29:02.025Z,9.00
2019-02-07T15:30:07.831Z,9.00
2019-02-07T15:31:10.541Z,8.50
2019-02-07T15:32:13.303Z,9.75
2019-02-07T15:33:17.115Z,10.25
2019-02-07T15:34:20.437Z,10.75
2019-02-07T15:35:27.458Z,9.50
2019-02-07T15:36:33.185Z,10.75
2019-02-07T15:37:36.089Z,10.00
2019-02-07T15:38:38.767Z,9.00
2019-02-07T15:39:41.734Z,9.25
2019-02-07T15:40:44.970Z,9.75
2019-02-07T15:41:47.915Z,13.25
2019-02-07T15:42:50.591Z,9.00
2019-02-07T15:43:53.486Z,11.25
2019-02-07T15:44:56.453Z,12.75
2019-02-07T15:45:59.966Z,9.00
2019-02-07T15:47:05.689Z,10.25
2019-02-07T15:48:08.546Z,10.50
2019-02-07T15:49:11.800Z,9.00
2019-02-07T15:50:14.846Z,10.75
2019-02-07T15:51:17.844Z,9.00
2019-02-07T15:52:26.567Z,9.25
2019-02-07T15:53:34.418Z,10.00
2019-02-07T15:54:42.689Z,8.00
2019-02-07T15:55:45.577Z,12.50
2019-02-07T15:56:48.617Z,11.50
2019-02-07T15:57:51.509Z,12.00
2019-02-07T15:59:17.243Z,9.00
2019-02-07T16:00:39.750Z,10.00
2019-02-07T16:02:01.303Z,7.50
2019-02-07T16:03:08.363Z,13.00
2019-02-07T16:04:20.373Z,11.00
2019-02-07T16:05:26.618Z,9.50
2019-02-07T16:06:31.427Z,10.00
2019-02-07T16:07:34.947Z,7.00
2019-02-07T16:08:38.210Z,9.00
2019-02-07T16:09:43.508Z,9.50
2019-02-07T16:10:49.697Z,9.00
2019-02-07T16:11:56.644Z,8.00
2019-02-07T16:13:00.253Z,11.00
2019-02-07T16:14:04.104Z,5.00
2019-02-07T16:15:06.864Z,9.00
2019-02-07T16:16:10.204Z,9.00
2019-02-07T16:17:15.821Z,8.50
2019-02-07T16:18:18.586Z,6.50
2019-02-07T16:19:21.842Z,7.00
2019-02-07T16:20:25.050Z,9.00
2019-02-07T16:21:27.967Z,7.00
2019-02-07T16:22:38.742Z,10.00
2019-02-07T16:23:44.003Z,9.00
2019-02-07T16:24:47.237Z,6.50
2019-02-07T16:25:51.995Z,7.00
2019-02-07T16:26:57.905Z,7.00
2019-02-07T16:28:04.432Z,5.50
2019-02-07T16:29:07.348Z,9.00
2019-02-07T16:30:10.522Z,6.50
2019-02-07T16:31:13.349Z,7.00
2019-02-07T16:32:18.535Z,7.00
2019-02-07T16:33:21.294Z,7.00
2019-02-07T16:34:24.505Z,5.50
2019-02-07T16:35:29.828Z,7.00
2019-02-07T16:36:36.352Z,9.00
2019-02-07T16:37:39.215Z,9.00
2019-02-07T16:38:42.123Z,5.00
2019-02-07T16:39:47.681Z,8.00
2019-02-07T16:40:51.243Z,7.50
2019-02-07T16:42:05.624Z,7.00
2019-02-07T16:42:59.070Z,9.00
2019-02-07T16:44:03.417Z,5.00
2019-02-07T16:45:09.001Z,7.00
2019-02-07T16:46:13.504Z,7.50
2019-02-07T16:47:16.584Z,7.00
2019-02-07T16:48:22.167Z,5.00
2019-02-07T16:49:25.611Z,9.00
2019-02-07T16:50:34.763Z,5.00
2019-02-07T16:51:37.657Z,5.00
2019-02-07T16:52:44.004Z,7.00
2019-02-07T16:53:47.155Z,8.00
2019-02-07T16:54:52.629Z,5.50
2019-02-07T16:55:55.445Z,7.50
2019-02-07T16:56:58.409Z,5.00
2019-02-07T16:58:01.583Z,5.00
2019-02-07T16:59:04.376Z,7.00